Crosby Hunter — WDH3350 — position and weather

sailwx.info

Track history (hours):
 
Tides and Currents Weather Stations Pressure Air Temp Water Temp Dewpoint Dewpoint Depression Visibility Wind Speed Wind Dir Waves Ship Positions

Crosby Hunter

Owner: Crosby Marine Transportation, LLC, Galliano, LA. More information available from US FCC via Universal Licensing System and Coast Guard Vessel Documentation Center.

Last reported at 2017-Aug-21 15:59 UTC. Time now 2017-Sep-23 03:43 UTC.
Position N 29°32' W 090°49'.
Warning: this ship's position is 32 days out of date.

Length 22 m; draft 3.9 m.

Type: Tug. MMSI: 367069420.

Date/timePositionNaut miles runAvg speedWind from/ knotsBaromVisibWave heightAir tempDewpointWater temp
2017-Aug-21 15:59N 29°32' W 090°49'3 6.6
2017-Aug-21 15:30N 29°33' W 090°45'2 4.7
2017-Aug-21 15:00N 29°34' W 090°43'1 2.1
2017-Aug-21 14:30N 29°33' W 090°42'0 0.0
2017-Aug-21 14:00N 29°33' W 090°42'0 0.0
2017-Aug-21 13:30N 29°33' W 090°42'0 0.0
2017-Aug-21 13:00N 29°33' W 090°42'0 0.1
2017-Aug-21 12:30N 29°33' W 090°42'0 0.0
2017-Aug-21 12:00N 29°33' W 090°42'0 0.0
2017-Aug-21 11:30N 29°33' W 090°42'0 0.0
2017-Aug-21 11:00N 29°33' W 090°42'0 0.0
2017-Aug-21 10:30N 29°33' W 090°42'0 0.0
2017-Aug-21 10:00N 29°33' W 090°42'0 0.0
2017-Aug-21 09:30N 29°33' W 090°42'0 0.0
2017-Aug-21 09:00N 29°33' W 090°42'0 0.0
2017-Aug-21 08:30N 29°33' W 090°42'0 0.0
2017-Aug-21 08:00N 29°33' W 090°42'0 0.0
2017-Aug-21 07:30N 29°33' W 090°42'0 0.0
2017-Aug-21 07:00N 29°33' W 090°42'0 0.0
2017-Aug-21 06:30N 29°33' W 090°42'0 0.0
2017-Aug-21 06:00N 29°33' W 090°42'0 0.0
2017-Aug-21 05:30N 29°33' W 090°42'0 0.0
2017-Aug-21 05:00N 29°33' W 090°42'0 0.0
2017-Aug-21 04:30N 29°33' W 090°42'0 0.0
2017-Aug-21 04:00N 29°33' W 090°42'0 0.0
2017-Aug-21 03:30N 29°33' W 090°42'0 0.0
2017-Aug-21 03:00N 29°33' W 090°42'1 1.3
2017-Aug-21 02:30N 29°33' W 090°42'3 5.8
2017-Aug-21 02:00N 29°36' W 090°43'2 3.9
2017-Aug-21 01:30N 29°36' W 090°40'0 0.0
2017-Aug-21 01:00N 29°36' W 090°40'0 0.0
2017-Aug-21 00:30N 29°36' W 090°40'0 0.0
2017-Aug-21 00:00N 29°36' W 090°40'0 0.0
2017-Aug-20 23:30N 29°36' W 090°40'0 0.0
2017-Aug-20 23:00N 29°36' W 090°40'0 0.0
2017-Aug-20 22:30N 29°36' W 090°40'2 4.0
2017-Aug-20 22:00N 29°36' W 090°43'3 6.5
2017-Aug-20 21:30N 29°33' W 090°42'1 1.1
2017-Aug-20 21:00N 29°33' W 090°42'0 0.0
2017-Aug-20 20:30N 29°33' W 090°42'0 0.0
2017-Aug-20 20:00N 29°33' W 090°42'0 0.0
2017-Aug-20 19:30N 29°33' W 090°42'0 0.0
2017-Aug-20 19:00N 29°33' W 090°42'0 0.0
2017-Aug-20 18:30N 29°33' W 090°42'0 0.0
2017-Aug-20 18:00N 29°33' W 090°42'0 0.0
2017-Aug-20 17:30N 29°33' W 090°42'0 0.0
2017-Aug-20 17:00N 29°33' W 090°42'0 0.0
2017-Aug-20 16:30N 29°33' W 090°42'0 0.0
2017-Aug-20 16:00N 29°33' W 090°42'0 0.0
2017-Aug-20 15:30N 29°33' W 090°42'0 0.0
2017-Aug-20 15:00N 29°33' W 090°42'0 0.0
2017-Aug-20 14:30N 29°33' W 090°42'0 0.0
2017-Aug-20 14:00N 29°33' W 090°42'0 0.0
2017-Aug-20 13:30N 29°33' W 090°42'0 0.0
2017-Aug-20 13:00N 29°33' W 090°42'0 0.0
2017-Aug-20 12:30N 29°33' W 090°42'0 0.0
2017-Aug-20 12:00N 29°33' W 090°42'0 0.0
2017-Aug-20 11:30N 29°33' W 090°42'0 0.0
2017-Aug-20 11:00N 29°33' W 090°42'0 0.0
2017-Aug-20 10:30N 29°33' W 090°42'0 0.0
2017-Aug-20 10:00N 29°33' W 090°42'0 0.0
2017-Aug-20 09:30N 29°33' W 090°42'0 0.0
2017-Aug-20 09:00N 29°33' W 090°42'0 0.0
2017-Aug-20 08:30N 29°33' W 090°42'0 0.0
2017-Aug-20 08:00N 29°33' W 090°42'0 0.0
2017-Aug-20 07:30N 29°33' W 090°42'0 0.0
2017-Aug-20 07:00N 29°33' W 090°42'0 0.0
2017-Aug-20 06:30N 29°33' W 090°42'1 2.8
2017-Aug-20 06:00N 29°31' W 090°42'3 6.7
2017-Aug-20 05:30N 29°28' W 090°43'3 6.7
2017-Aug-20 05:00N 29°25' W 090°44'3 6.3
2017-Aug-20 04:27N 29°21' W 090°44'9 6.2
2017-Aug-20 02:56N 29°13' W 090°39'3 5.9
2017-Aug-20 02:28N 29°11' W 090°37'12 2.0
2017-Aug-19 20:20N 29°22' W 090°44'0 0.0
2017-Aug-19 19:13N 29°22' W 090°44'0 0.0
2017-Aug-19 18:52N 29°22' W 090°44'0 0.0
2017-Aug-19 14:55N 29°22' W 090°44'0 0.0
2017-Aug-19 09:30N 29°22' W 090°44'1 1.4
2017-Aug-19 08:59N 29°22' W 090°44'3 7.0
2017-Aug-19 08:30N 29°26' W 090°43'4 7.2
2017-Aug-19 08:00N 29°29' W 090°43'0 0.9
2017-Aug-19 07:30N 29°30' W 090°43'0 0.8
2017-Aug-19 07:00N 29°30' W 090°43'2 3.4
2017-Aug-19 06:30N 29°32' W 090°42'3 5.0
2017-Aug-19 06:00N 29°34' W 090°43'0 1.0
2017-Aug-19 05:30N 29°34' W 090°43'3 6.4
2017-Aug-19 05:00N 29°32' W 090°47'4 8.1
2017-Aug-19 04:30N 29°32' W 090°51'4 7.5
2017-Aug-19 04:00N 29°34' W 090°55'  
Track history (hours):
 
Tides and Currents Weather Stations Pressure Air Temp Water Temp Dewpoint Dewpoint Depression Visibility Wind Speed Wind Dir Waves Ship Positions

Crosby Hunter

Owner: Crosby Marine Transportation, LLC, Galliano, LA. More information available from US FCC via Universal Licensing System and Coast Guard Vessel Documentation Center.

Last reported at 2017-Aug-21 15:59 UTC. Time now 2017-Sep-23 03:43 UTC.
Position N 29°32' W 090°49'.
Warning: this ship's position is 32 days out of date.

Length 22 m; draft 3.9 m.

Type: Tug. MMSI: 367069420.

Date/timePositionNaut miles runAvg speedWind from/ knotsBaromVisibWave heightAir tempDewpointWater temp
2017-Aug-21 15:59N 29°32' W 090°49'3 6.6
2017-Aug-21 15:30N 29°33' W 090°45'2 4.7
2017-Aug-21 15:00N 29°34' W 090°43'1 2.1
2017-Aug-21 14:30N 29°33' W 090°42'0 0.0
2017-Aug-21 14:00N 29°33' W 090°42'0 0.0
2017-Aug-21 13:30N 29°33' W 090°42'0 0.0
2017-Aug-21 13:00N 29°33' W 090°42'0 0.1
2017-Aug-21 12:30N 29°33' W 090°42'0 0.0
2017-Aug-21 12:00N 29°33' W 090°42'0 0.0
2017-Aug-21 11:30N 29°33' W 090°42'0 0.0
2017-Aug-21 11:00N 29°33' W 090°42'0 0.0
2017-Aug-21 10:30N 29°33' W 090°42'0 0.0
2017-Aug-21 10:00N 29°33' W 090°42'0 0.0
2017-Aug-21 09:30N 29°33' W 090°42'0 0.0
2017-Aug-21 09:00N 29°33' W 090°42'0 0.0
2017-Aug-21 08:30N 29°33' W 090°42'0 0.0
2017-Aug-21 08:00N 29°33' W 090°42'0 0.0
2017-Aug-21 07:30N 29°33' W 090°42'0 0.0
2017-Aug-21 07:00N 29°33' W 090°42'0 0.0
2017-Aug-21 06:30N 29°33' W 090°42'0 0.0
2017-Aug-21 06:00N 29°33' W 090°42'0 0.0
2017-Aug-21 05:30N 29°33' W 090°42'0 0.0
2017-Aug-21 05:00N 29°33' W 090°42'0 0.0
2017-Aug-21 04:30N 29°33' W 090°42'0 0.0
2017-Aug-21 04:00N 29°33' W 090°42'0 0.0
2017-Aug-21 03:30N 29°33' W 090°42'0 0.0
2017-Aug-21 03:00N 29°33' W 090°42'1 1.3
2017-Aug-21 02:30N 29°33' W 090°42'3 5.8
2017-Aug-21 02:00N 29°36' W 090°43'2 3.9
2017-Aug-21 01:30N 29°36' W 090°40'0 0.0
2017-Aug-21 01:00N 29°36' W 090°40'0 0.0
2017-Aug-21 00:30N 29°36' W 090°40'0 0.0
2017-Aug-21 00:00N 29°36' W 090°40'0 0.0
2017-Aug-20 23:30N 29°36' W 090°40'0 0.0
2017-Aug-20 23:00N 29°36' W 090°40'0 0.0
2017-Aug-20 22:30N 29°36' W 090°40'2 4.0
2017-Aug-20 22:00N 29°36' W 090°43'3 6.5
2017-Aug-20 21:30N 29°33' W 090°42'1 1.1
2017-Aug-20 21:00N 29°33' W 090°42'0 0.0
2017-Aug-20 20:30N 29°33' W 090°42'0 0.0
2017-Aug-20 20:00N 29°33' W 090°42'0 0.0
2017-Aug-20 19:30N 29°33' W 090°42'0 0.0
2017-Aug-20 19:00N 29°33' W 090°42'0 0.0
2017-Aug-20 18:30N 29°33' W 090°42'0 0.0
2017-Aug-20 18:00N 29°33' W 090°42'0 0.0
2017-Aug-20 17:30N 29°33' W 090°42'0 0.0
2017-Aug-20 17:00N 29°33' W 090°42'0 0.0
2017-Aug-20 16:30N 29°33' W 090°42'0 0.0
2017-Aug-20 16:00N 29°33' W 090°42'0 0.0
2017-Aug-20 15:30N 29°33' W 090°42'0 0.0
2017-Aug-20 15:00N 29°33' W 090°42'0 0.0
2017-Aug-20 14:30N 29°33' W 090°42'0 0.0
2017-Aug-20 14:00N 29°33' W 090°42'0 0.0
2017-Aug-20 13:30N 29°33' W 090°42'0 0.0
2017-Aug-20 13:00N 29°33' W 090°42'0 0.0
2017-Aug-20 12:30N 29°33' W 090°42'0 0.0
2017-Aug-20 12:00N 29°33' W 090°42'0 0.0
2017-Aug-20 11:30N 29°33' W 090°42'0 0.0
2017-Aug-20 11:00N 29°33' W 090°42'0 0.0
2017-Aug-20 10:30N 29°33' W 090°42'0 0.0
2017-Aug-20 10:00N 29°33' W 090°42'0 0.0
2017-Aug-20 09:30N 29°33' W 090°42'0 0.0
2017-Aug-20 09:00N 29°33' W 090°42'0 0.0
2017-Aug-20 08:30N 29°33' W 090°42'0 0.0
2017-Aug-20 08:00N 29°33' W 090°42'0 0.0
2017-Aug-20 07:30N 29°33' W 090°42'0 0.0
2017-Aug-20 07:00N 29°33' W 090°42'0 0.0
2017-Aug-20 06:30N 29°33' W 090°42'1 2.8
2017-Aug-20 06:00N 29°31' W 090°42'3 6.7
2017-Aug-20 05:30N 29°28' W 090°43'3 6.7
2017-Aug-20 05:00N 29°25' W 090°44'3 6.3
2017-Aug-20 04:27N 29°21' W 090°44'9 6.2
2017-Aug-20 02:56N 29°13' W 090°39'3 5.9
2017-Aug-20 02:28N 29°11' W 090°37'12 2.0
2017-Aug-19 20:20N 29°22' W 090°44'0 0.0
2017-Aug-19 19:13N 29°22' W 090°44'0 0.0
2017-Aug-19 18:52N 29°22' W 090°44'0 0.0
2017-Aug-19 14:55N 29°22' W 090°44'0 0.0
2017-Aug-19 09:30N 29°22' W 090°44'1 1.4
2017-Aug-19 08:59N 29°22' W 090°44'3 7.0
2017-Aug-19 08:30N 29°26' W 090°43'4 7.2
2017-Aug-19 08:00N 29°29' W 090°43'0 0.9
2017-Aug-19 07:30N 29°30' W 090°43'0 0.8
2017-Aug-19 07:00N 29°30' W 090°43'2 3.4
2017-Aug-19 06:30N 29°32' W 090°42'3 5.0
2017-Aug-19 06:00N 29°34' W 090°43'0 1.0
2017-Aug-19 05:30N 29°34' W 090°43'3 6.4
2017-Aug-19 05:00N 29°32' W 090°47'4 8.1
2017-Aug-19 04:30N 29°32' W 090°51'4 7.5
2017-Aug-19 04:00N 29°34' W 090°55'  

Dump ship's entire track history